Time;durP1;ratioP1;P1;durP2;ratioP2;P2;SDS_P1;SDS_P2;PMS_P1;PMS_P2;Temp;Humidity;BMP_temperature;BMP_pressure;BME280_temperature;BME280_humidity;BME280_pressure;Samples;Min_cycle;Max_cycle;Signal;HPM_P1;HPM_P2
2024/01/01 00:01:58;;;;;;;10.60;1.23;;;5.90;99.90;;;;;;5072464;28;20027;-75
2024/01/01 00:04:29;;;;;;;2.83;0.40;;;5.90;99.90;;;;;;5068004;28;20248;-74
2024/01/01 00:07:07;;;;;;;2.13;0.52;;;5.90;99.90;;;;;;5067534;28;20032;-74
2024/01/01 00:10:13;;;;;;;3.65;0.57;;;5.90;99.90;;;;;;5068132;28;20016;-74
2024/01/01 00:16:41;;;;;;;2.25;0.52;;;6.00;99.90;;;;;;5039633;28;20096;-75
2024/01/01 00:20:09;;;;;;;;;;;;;;;;;;;;;
2024/01/01 00:25:48;;;;;;;1.75;0.38;;;6.30;99.90;;;;;;5025908;28;20109;-75
2024/01/01 00:28:40;;;;;;;0.90;0.22;;;6.10;99.90;;;;;;5058777;28;20268;-75
2024/01/01 00:31:06;;;;;;;4.90;0.73;;;6.00;99.90;;;;;;5060619;28;20040;-76
2024/01/01 00:34:06;;;;;;;1.85;0.50;;;5.90;99.90;;;;;;5069213;28;20052;-75
2024/01/01 00:37:16;;;;;;;7.85;1.38;;;5.80;99.90;;;;;;5070873;28;20170;-76
2024/01/01 00:42:54;;;;;;;1.02;0.57;;;5.90;99.90;;;;;;5059267;28;20037;-75
2024/01/01 00:45:23;;;;;;;4.45;1.05;;;6.00;99.90;;;;;;5070546;28;20044;-75
2024/01/01 00:48:01;;;;;;;2.97;1.02;;;6.10;99.90;;;;;;5068073;28;20078;-74
2024/01/01 00:50:58;;;;;;;5.05;1.10;;;6.30;99.90;;;;;;5074072;28;20055;-75
2024/01/01 00:54:09;;;;;;;4.47;1.83;;;6.40;99.90;;;;;;5086571;28;20328;-75
2024/01/01 00:56:33;;;;;;;;;;;6.30;99.90;;;;;;5074969;28;20038;-77
2024/01/01 00:58:59;;;;;;;7.80;2.95;;;6.00;99.90;;;;;;5101891;28;19931;-75
2024/01/01 01:01:25;;;;;;;0.65;0.40;;;5.80;99.90;;;;;;5082265;28;20026;-75
2024/01/01 01:03:51;;;;;;;1.83;0.90;;;5.60;99.90;;;;;;5082497;28;20028;-76
2024/01/01 01:06:18;;;;;;;0.98;0.32;;;5.50;99.90;;;;;;5082813;28;20027;-75
2024/01/01 01:08:43;;;;;;;0.75;0.50;;;5.30;99.90;;;;;;5080309;28;20225;-76
2024/01/01 01:11:09;;;;;;;7.07;2.15;;;5.10;99.90;;;;;;5081643;28;20097;-76
2024/01/01 01:13:35;;;;;;;3.95;1.70;;;5.00;99.90;;;;;;5081108;28;20045;-75
2024/01/01 01:16:00;;;;;;;4.03;1.58;;;4.90;99.90;;;;;;5077463;28;20347;-73
2024/01/01 01:18:26;;;;;;;4.22;1.00;;;4.90;99.90;;;;;;5081640;28;20022;-75
2024/01/01 01:20:52;;;;;;;3.38;1.40;;;4.80;99.90;;;;;;5081571;28;20055;-75
2024/01/01 01:23:17;;;;;;;6.03;0.52;;;4.80;99.90;;;;;;5080660;28;20059;-75
2024/01/01 01:25:44;;;;;;;3.08;0.63;;;4.70;99.90;;;;;;5082861;28;20016;-75
2024/01/01 01:28:10;;;;;;;4.78;1.73;;;4.70;99.90;;;;;;5083590;28;20031;-76
2024/01/01 01:30:35;;;;;;;0.40;0.40;;;4.60;99.90;;;;;;5083100;28;20208;-76
2024/01/01 01:33:01;;;;;;;7.03;2.13;;;4.50;99.90;;;;;;5082106;28;20040;-74
2024/01/01 01:35:27;;;;;;;5.88;0.65;;;4.50;99.90;;;;;;5082269;28;20036;-76
2024/01/01 01:37:53;;;;;;;0.60;0.40;;;4.50;99.90;;;;;;5082920;28;20021;-75
2024/01/01 01:40:30;;;;;;;0.80;0.38;;;4.40;99.90;;;;;;5082475;28;20028;-75
2024/01/01 01:42:56;;;;;;;1.75;0.55;;;4.50;99.90;;;;;;5081641;28;20025;-75
2024/01/01 01:45:22;;;;;;;2.70;0.65;;;4.30;99.90;;;;;;5081052;28;20017;-76
2024/01/01 01:47:48;;;;;;;0.52;0.35;;;4.30;99.90;;;;;;5083400;28;20513;-75
2024/01/01 01:50:18;;;;;;;1.38;0.95;;;4.30;99.90;;;;;;5081579;28;20064;-74
2024/01/01 01:52:45;;;;;;;3.13;1.40;;;4.30;99.90;;;;;;5077304;28;20032;-74
2024/01/01 01:55:13;;;;;;;0.80;0.50;;;4.40;99.90;;;;;;5101817;28;20027;-77
2024/01/01 01:57:40;;;;;;;2.72;1.52;;;4.50;99.90;;;;;;5100926;28;20027;-74
2024/01/01 02:00:07;;;;;;;4.07;0.90;;;4.50;99.90;;;;;;5099551;28;20066;-76
2024/01/01 02:02:37;;;;;;;1.63;0.40;;;4.50;99.90;;;;;;5100581;28;20024;-75
2024/01/01 02:05:06;;;;;;;2.13;0.75;;;4.40;99.90;;;;;;5097397;28;20541;-74
2024/01/01 02:07:32;;;;;;;0.60;0.30;;;4.40;99.90;;;;;;5097504;28;20092;-75
2024/01/01 02:09:58;;;;;;;0.90;0.50;;;4.50;99.90;;;;;;5095840;28;20379;-74
2024/01/01 02:12:43;;;;;;;0.57;0.52;;;4.50;99.90;;;;;;5095508;28;20050;-73
2024/01/01 02:15:08;;;;;;;1.95;0.50;;;4.40;99.90;;;;;;5092421;28;20036;-74
2024/01/01 02:17:34;;;;;;;2.08;0.32;;;4.40;99.90;;;;;;5098549;28;20031;-74
2024/01/01 02:20:00;;;;;;;2.55;0.73;;;4.40;99.90;;;;;;5099649;28;20020;-76
2024/01/01 02:22:39;;;;;;;2.35;0.50;;;4.40;99.90;;;;;;5094846;28;20024;-76
2024/01/01 02:25:09;;;;;;;2.03;0.75;;;4.40;99.90;;;;;;5101485;28;20020;-74
2024/01/01 02:27:38;;;;;;;0.65;0.35;;;4.50;99.90;;;;;;5101640;28;20328;-73
2024/01/01 02:30:10;;;;;;;0.35;0.25;;;4.50;99.90;;;;;;5101257;28;20004;-76
2024/01/01 02:32:37;;;;;;;4.68;2.08;;;4.50;99.90;;;;;;5099467;28;20024;-76
2024/01/01 02:35:07;;;;;;;0.68;0.40;;;4.70;99.90;;;;;;5100131;28;20430;-74
2024/01/01 02:37:38;;;;;;;;;;;4.70;99.90;;;;;;5101876;28;20020;-75
2024/01/01 02:43:29;;;;;;;2.72;0.28;;;4.80;99.90;;;;;;4968238;28;20163;-74
2024/01/01 02:45:54;;;;;;;3.00;0.30;;;4.70;99.90;;;;;;5088055;28;20036;-75
2024/01/01 02:48:29;;;;;;;0.43;0.30;;;4.60;99.90;;;;;;5100778;28;20066;-74
2024/01/01 02:51:04;;;;;;;0.10;0.10;;;4.60;99.90;;;;;;5099030;28;20266;-75
2024/01/01 02:53:32;;;;;;;1.92;0.25;;;4.60;99.90;;;;;;5087470;28;20021;-74
2024/01/01 02:56:01;;;;;;;3.80;0.60;;;4.60;99.90;;;;;;5075373;28;20032;-75
2024/01/01 03:02:13;;;;;;;5.43;0.43;;;4.50;99.90;;;;;;4971617;28;20128;-73
2024/01/01 03:05:01;;;;;;;2.60;0.73;;;4.40;99.90;;;;;;5021747;28;20029;-76
2024/01/01 03:07:27;;;;;;;4.05;0.30;;;4.30;99.90;;;;;;5072604;28;20550;-74
2024/01/01 03:10:04;;;;;;;9.73;0.55;;;4.20;99.90;;;;;;5080748;28;20028;-74
2024/01/01 03:16:29;;;;;;;2.22;0.50;;;4.00;99.90;;;;;;4938009;29;20055;-74
2024/01/01 03:20:15;;;;;;;;;;;;;;;;;;;;;
2024/01/01 03:22:42;;;;;;;0.80;0.55;;;4.00;99.90;;;;;;4915916;29;20091;-75
2024/01/01 03:26:07;;;;;;;2.15;0.90;;;3.90;99.90;;;;;;4902352;29;20084;-75
2024/01/01 03:29:07;;;;;;;6.45;0.95;;;3.90;99.90;;;;;;4896414;29;20050;-75
2024/01/01 03:31:37;;;;;;;5.55;0.98;;;4.00;99.90;;;;;;4970441;28;20279;-75
2024/01/01 03:34:03;;;;;;;2.33;0.50;;;4.20;99.90;;;;;;5059798;28;20040;-75
2024/01/01 03:43:56;;;;;;;5.07;0.63;;;4.90;99.90;;;;;;4971296;28;20030;-74
2024/01/01 03:46:28;;;;;;;5.75;0.98;;;5.10;99.90;;;;;;4998928;28;20686;-73
2024/01/01 03:49:40;;;;;;;1.10;0.57;;;5.30;99.90;;;;;;5059683;28;20028;-74
2024/01/01 03:52:13;;;;;;;4.65;0.73;;;5.40;99.90;;;;;;5059736;28;20095;-75
2024/01/01 03:55:01;;;;;;;1.45;0.40;;;5.40;99.90;;;;;;5056781;28;20236;-75
2024/01/01 04:01:07;;;;;;;3.95;1.15;;;5.50;99.90;;;;;;4954180;28;20281;-75
2024/01/01 04:03:34;;;;;;;1.95;1.13;;;5.50;99.90;;;;;;4998837;28;20034;-76
2024/01/01 04:06:00;;;;;;;2.63;0.98;;;5.40;99.90;;;;;;5058184;28;20094;-75
2024/01/01 04:08:26;;;;;;;3.28;0.75;;;5.40;99.90;;;;;;5055745;28;20416;-74
2024/01/01 04:10:52;;;;;;;7.13;1.92;;;5.40;99.90;;;;;;5053672;28;20332;-75
2024/01/01 04:13:17;;;;;;;4.45;0.50;;;5.30;99.90;;;;;;5053410;28;20032;-74
2024/01/01 04:16:02;;;;;;;5.18;1.45;;;5.30;99.90;;;;;;5048798;28;20288;-74
2024/01/01 04:19:06;;;;;;;6.00;1.02;;;5.40;99.90;;;;;;5062743;28;20500;-75
2024/01/01 04:22:15;;;;;;;2.65;0.50;;;5.30;99.90;;;;;;5074068;28;20016;-75
2024/01/01 04:25:08;;;;;;;4.07;0.77;;;5.40;99.90;;;;;;5074132;28;20052;-75
2024/01/01 04:27:47;;;;;;;5.47;1.42;;;5.40;99.90;;;;;;5054427;28;20028;-76
2024/01/01 04:30:26;;;;;;;3.83;0.32;;;5.40;99.90;;;;;;5081906;28;20125;-75
2024/01/01 04:33:00;;;;;;;2.95;0.43;;;5.40;99.90;;;;;;5076134;28;20104;-76
2024/01/01 04:35:54;;;;;;;;;;;;;;;;;;;;;
2024/01/01 04:38:44;;;;;;;3.90;0.30;;;5.40;99.90;;;;;;5079192;28;20084;-74
2024/01/01 04:42:30;;;;;;;2.97;0.28;;;5.40;99.90;;;;;;5038434;28;20320;-76
2024/01/01 04:44:38;;;;;;;0.93;0.40;;;5.30;99.90;;;;;;5061250;28;20024;-76
2024/01/01 04:47:19;;;;;;;2.75;0.60;;;5.30;99.90;;;;;;5075426;28;20025;-74
2024/01/01 04:50:47;;;;;;;1.83;0.55;;;5.20;99.90;;;;;;5077495;28;20069;-75
2024/01/01 04:53:36;;;;;;;2.80;0.52;;;5.20;99.90;;;;;;5004472;28;20297;-76
2024/01/01 04:56:34;;;;;;;1.08;0.70;;;5.10;99.90;;;;;;5013089;28;20110;-74
2024/01/01 04:59:36;;;;;;;1.10;0.70;;;5.20;99.90;;;;;;5100625;28;20098;-74
2024/01/01 05:05:23;;;;;;;0.65;0.40;;;5.30;99.90;;;;;;5040391;28;20106;-75
2024/01/01 05:08:31;;;;;;;2.42;0.47;;;5.30;99.90;;;;;;5031549;28;20105;-74
2024/01/01 05:11:36;;;;;;;;;;;;;;;;;;;;;
2024/01/01 05:14:33;;;;;;;;;;;;;;;;;;;;;
2024/01/01 05:20:37;;;;;;;3.05;0.43;;;5.40;99.90;;;;;;5029279;28;20040;-75
2024/01/01 05:23:03;;;;;;;2.65;0.55;;;5.30;99.90;;;;;;5074864;28;20036;-74
2024/01/01 05:25:29;;;;;;;0.65;0.30;;;5.90;99.90;;;;;;5094219;28;20035;-75
2024/01/01 05:27:55;;;;;;;1.48;0.32;;;5.80;99.90;;;;;;5094233;28;20036;-75
2024/01/01 05:30:20;;;;;;;3.90;0.70;;;5.00;99.90;;;;;;5092728;28;20024;-75
2024/01/01 05:32:46;;;;;;;4.70;0.55;;;4.90;99.90;;;;;;5092815;28;20027;-75
2024/01/01 05:35:22;;;;;;;2.17;0.40;;;4.80;99.90;;;;;;5091037;28;20023;-74
2024/01/01 05:41:22;;;;;;;3.40;0.40;;;4.80;99.90;;;;;;5014250;28;20034;-74
2024/01/01 05:47:14;;;;;;;3.53;0.50;;;5.00;99.90;;;;;;5080750;28;20098;-75
2024/01/01 05:49:51;;;;;;;1.88;0.30;;;5.30;99.90;;;;;;5097252;28;20027;-74
2024/01/01 05:53:14;;;;;;;5.45;1.27;;;5.30;99.90;;;;;;5094017;28;20430;-73
2024/01/01 05:55:50;;;;;;;3.22;0.80;;;5.50;99.90;;;;;;5069854;28;20063;-77
2024/01/01 05:58:16;;;;;;;1.15;0.52;;;5.60;99.90;;;;;;5080793;28;20067;-77
2024/01/01 06:00:45;;;;;;;3.45;0.50;;;5.60;99.90;;;;;;5078992;28;20025;-76
2024/01/01 06:04:06;;;;;;;7.45;0.70;;;5.70;99.90;;;;;;5078406;28;20027;-76
2024/01/01 06:06:26;;;;;;;1.95;0.60;;;5.70;99.90;;;;;;5014607;28;20226;-75
2024/01/01 06:10:00;;;;;;;;;;;;;;;;;;;;;
2024/01/01 06:12:45;;;;;;;1.65;0.30;;;5.70;99.90;;;;;;4990247;28;20102;-74
2024/01/01 06:29:47;;;;;;;3.70;0.60;;;5.80;99.90;;;;;;4814473;29;20426;-74
2024/01/01 06:32:50;;;;;;;1.20;0.60;;;5.80;99.90;;;;;;4901999;29;20112;-75
2024/01/01 06:35:54;;;;;;;0.68;0.50;;;6.10;99.90;;;;;;4894502;29;20037;-74
2024/01/01 06:42:19;;;;;;;2.75;1.08;;;5.80;99.90;;;;;;4972148;28;20034;-76
2024/01/01 06:44:48;;;;;;;6.15;0.65;;;5.80;99.90;;;;;;4961879;28;20027;-76
2024/01/01 06:47:14;;;;;;;5.55;0.77;;;5.80;99.90;;;;;;5079391;28;20073;-76
2024/01/01 06:49:53;;;;;;;3.25;1.23;;;5.80;99.90;;;;;;5093291;28;20036;-75
2024/01/01 06:55:33;;;;;;;7.85;1.67;;;6.00;99.90;;;;;;5046172;28;20029;-77
2024/01/01 06:57:59;;;;;;;3.58;1.13;;;6.00;99.90;;;;;;5052745;28;20035;-75
2024/01/01 07:00:25;;;;;;;4.63;0.80;;;6.00;99.90;;;;;;5070651;28;20107;-76
2024/01/01 07:02:51;;;;;;;4.22;0.70;;;6.00;99.90;;;;;;5073779;28;20021;-74
2024/01/01 07:05:17;;;;;;;1.85;0.50;;;6.00;99.90;;;;;;5070554;28;20498;-75
2024/01/01 07:10:53;;;;;;;3.63;1.08;;;5.80;99.90;;;;;;4997401;28;20034;-75
2024/01/01 07:13:19;;;;;;;0.95;0.40;;;5.60;99.90;;;;;;5071523;28;20051;-73
2024/01/01 07:15:45;;;;;;;3.33;0.63;;;5.40;99.90;;;;;;5079487;28;20041;-74
2024/01/01 07:18:10;;;;;;;2.55;0.93;;;5.40;99.90;;;;;;5106796;28;20039;-75
2024/01/01 07:24:47;;;;;;;3.42;0.60;;;5.40;99.90;;;;;;5056613;28;20052;-76
2024/01/01 07:27:32;;;;;;;3.42;0.68;;;5.40;99.90;;;;;;5114633;28;20440;-75
2024/01/01 07:30:30;;;;;;;5.63;1.23;;;5.40;99.90;;;;;;5120248;28;20015;-75
2024/01/01 07:33:23;;;;;;;0.95;0.38;;;5.60;99.90;;;;;;5045346;28;20061;-75
2024/01/01 07:35:49;;;;;;;1.63;0.30;;;5.80;99.90;;;;;;5082214;28;20047;-74
2024/01/01 07:38:15;;;;;;;9.95;1.60;;;6.00;99.90;;;;;;5113657;28;20035;-75
2024/01/01 07:45:02;;;;;;;2.70;0.55;;;6.20;99.90;;;;;;5053445;28;20043;-74
2024/01/01 07:47:49;;;;;;;7.60;2.38;;;6.20;99.90;;;;;;4951114;28;20327;-77
2024/01/01 07:57:08;;;;;;;3.38;0.70;;;6.10;99.90;;;;;;4990268;28;20041;-73
2024/01/01 07:59:34;;;;;;;5.65;1.23;;;6.10;99.90;;;;;;5028912;28;20204;-76
2024/01/01 08:02:12;;;;;;;4.22;0.63;;;6.20;99.90;;;;;;5095371;28;20243;-76
2024/01/01 08:05:34;;;;;;;5.20;1.27;;;6.30;99.90;;;;;;5118447;28;20300;-76
2024/01/01 08:11:37;;;;;;;5.20;0.60;;;6.30;99.90;;;;;;4997709;28;20023;-74
2024/01/01 08:14:09;;;;;;;2.08;0.70;;;6.30;99.90;;;;;;5011520;28;20171;-77
2024/01/01 08:17:26;;;;;;;4.10;0.80;;;6.30;99.90;;;;;;4975287;28;20150;-76
2024/01/01 08:29:14;;;;;;;7.00;0.80;;;6.40;99.90;;;;;;5044228;28;20040;-77
2024/01/01 08:31:52;;;;;;;5.15;0.70;;;6.40;99.90;;;;;;5027241;28;20031;-76
2024/01/01 08:34:38;;;;;;;2.42;1.15;;;6.30;99.90;;;;;;5047303;28;20029;-74
2024/01/01 08:37:16;;;;;;;5.47;1.25;;;5.80;99.90;;;;;;5040215;28;20363;-75
2024/01/01 08:39:42;;;;;;;7.70;0.90;;;6.50;99.90;;;;;;5054863;28;20016;-74
2024/01/01 08:42:14;;;;;;;6.78;1.52;;;6.60;99.90;;;;;;5053749;28;20036;-75
2024/01/01 08:44:40;;;;;;;5.75;0.70;;;6.80;99.90;;;;;;5054873;28;20021;-74
2024/01/01 08:47:05;;;;;;;4.82;0.70;;;6.90;99.90;;;;;;5063786;28;20028;-75
2024/01/01 08:49:31;;;;;;;6.72;0.75;;;7.00;99.90;;;;;;5095765;28;20141;-76
2024/01/01 08:51:57;;;;;;;8.93;2.88;;;7.20;99.90;;;;;;5081688;28;20031;-74
2024/01/01 08:54:23;;;;;;;4.32;1.25;;;7.30;99.90;;;;;;5115567;28;20031;-76
2024/01/01 08:56:49;;;;;;;4.40;0.93;;;7.30;99.90;;;;;;5101994;28;20103;-74
2024/01/01 08:59:17;;;;;;;7.88;0.88;;;7.30;99.90;;;;;;5119704;28;20049;-74
2024/01/01 09:01:44;;;;;;;2.45;0.90;;;7.40;99.90;;;;;;5116554;28;20016;-75
2024/01/01 09:04:22;;;;;;;7.63;0.60;;;7.50;99.90;;;;;;5109891;28;20472;-74
2024/01/01 09:06:52;;;;;;;9.48;0.95;;;7.60;99.90;;;;;;5117570;28;20031;-75
2024/01/01 09:09:18;;;;;;;3.50;0.47;;;7.70;99.90;;;;;;5116680;28;20023;-75
2024/01/01 09:11:47;;;;;;;2.28;0.70;;;7.90;99.90;;;;;;5109066;28;20020;-75
2024/01/01 09:14:12;;;;;;;4.53;1.10;;;7.90;99.90;;;;;;5086933;28;20489;-75
2024/01/01 09:16:56;;;;;;;4.28;1.02;;;7.90;99.90;;;;;;5104242;28;20023;-74
2024/01/01 09:19:28;;;;;;;3.80;0.43;;;7.80;99.90;;;;;;5075549;28;20045;-75
2024/01/01 09:21:54;;;;;;;5.10;0.65;;;7.80;99.90;;;;;;5094557;28;20095;-75
2024/01/01 09:24:20;;;;;;;3.38;0.90;;;7.80;99.90;;;;;;5083886;28;20059;-74
2024/01/01 09:26:47;;;;;;;5.28;0.88;;;7.80;99.90;;;;;;5080955;28;20106;-76
2024/01/01 09:29:13;;;;;;;7.22;2.15;;;7.80;99.90;;;;;;5091776;28;20066;-72
2024/01/01 09:31:50;;;;;;;5.07;0.60;;;7.90;99.90;;;;;;5082571;28;20052;-75
2024/01/01 09:34:27;;;;;;;5.28;0.90;;;7.80;99.90;;;;;;5082487;28;20076;-75
2024/01/01 09:37:02;;;;;;;4.55;0.60;;;8.50;99.90;;;;;;5083151;28;20022;-76
2024/01/01 09:39:28;;;;;;;4.82;1.10;;;7.90;99.90;;;;;;5092921;28;20076;-76
2024/01/01 09:41:54;;;;;;;7.22;1.05;;;8.00;99.90;;;;;;5091186;28;20244;-75
2024/01/01 09:44:19;;;;;;;5.13;1.23;;;8.10;99.90;;;;;;5090015;28;20016;-76
2024/01/01 09:46:46;;;;;;;5.35;0.65;;;8.10;99.90;;;;;;5084215;28;20020;-75
2024/01/01 09:49:12;;;;;;;10.80;1.63;;;8.10;99.90;;;;;;5070032;28;20062;-76
2024/01/01 09:51:41;;;;;;;5.28;0.70;;;8.10;99.90;;;;;;5081541;28;20021;-76
2024/01/01 09:54:09;;;;;;;7.90;0.95;;;8.10;99.90;;;;;;5087267;28;20039;-75
2024/01/01 09:56:35;;;;;;;4.68;0.95;;;8.20;99.90;;;;;;5072931;28;20138;-74
2024/01/01 09:59:01;;;;;;;3.10;0.82;;;8.40;99.90;;;;;;5082102;28;20107;-75
2024/01/01 10:01:28;;;;;;;3.97;0.80;;;8.50;99.90;;;;;;5089110;28;20211;-74
2024/01/01 10:04:03;;;;;;;7.57;1.23;;;8.70;99.90;;;;;;5073101;28;20027;-75
2024/01/01 10:06:34;;;;;;;5.45;2.05;;;8.80;99.90;;;;;;5068295;28;20100;-75
2024/01/01 10:09:11;;;;;;;9.15;1.00;;;9.10;99.90;;;;;;5064047;28;20099;-75
2024/01/01 10:11:41;;;;;;;4.13;1.02;;;9.10;99.90;;;;;;5064733;28;20106;-74
2024/01/01 10:14:07;;;;;;;3.33;1.42;;;9.10;99.90;;;;;;5084029;28;20252;-75
2024/01/01 10:16:33;;;;;;;7.93;1.23;;;9.00;99.90;;;;;;5081373;28;20029;-74
2024/01/01 10:19:02;;;;;;;11.85;4.30;;;9.10;99.90;;;;;;5078647;28;20052;-76
2024/01/01 10:21:34;;;;;;;8.35;2.85;;;9.00;99.90;;;;;;5081315;28;20024;-76
2024/01/01 10:24:15;;;;;;;3.92;1.65;;;8.90;99.90;;;;;;5082050;28;20106;-76
2024/01/01 10:26:44;;;;;;;9.52;1.48;;;8.50;99.90;;;;;;5096862;28;20111;-76
2024/01/01 10:30:01;;;;;;;12.52;2.42;;;8.20;99.90;;;;;;5101801;28;20226;-75
2024/01/01 10:33:15;;;;;;;8.38;2.17;;;7.80;99.90;;;;;;5094724;28;20024;-75
2024/01/01 10:35:41;;;;;;;4.22;1.20;;;7.40;99.90;;;;;;5096041;28;20043;-76
2024/01/01 10:38:17;;;;;;;8.07;3.47;;;7.10;99.90;;;;;;5101252;28;20058;-76
2024/01/01 10:40:59;;;;;;;13.90;5.43;;;7.00;99.90;;;;;;5102760;28;20064;-75
2024/01/01 10:43:29;;;;;;;8.35;1.30;;;6.80;99.90;;;;;;5093438;28;20103;-75
2024/01/01 10:45:59;;;;;;;;;;;6.60;99.90;;;;;;5093345;28;20024;-76
2024/01/01 10:48:31;;;;;;;16.10;4.63;;;6.50;99.90;;;;;;5091871;28;19912;-74
2024/01/01 10:51:41;;;;;;;8.77;2.22;;;6.40;99.90;;;;;;5102190;28;20069;-74
2024/01/01 10:54:56;;;;;;;10.07;2.45;;;6.30;99.90;;;;;;5101833;28;20057;-74
2024/01/01 10:57:33;;;;;;;12.63;1.48;;;6.30;99.90;;;;;;5070299;28;20036;-74
2024/01/01 11:00:47;;;;;;;7.03;1.80;;;6.20;99.90;;;;;;5102198;28;20301;-74
2024/01/01 11:03:14;;;;;;;4.18;1.05;;;6.20;99.90;;;;;;5101462;28;20292;-74
2024/01/01 11:05:49;;;;;;;8.57;1.85;;;6.40;99.90;;;;;;5102149;28;20020;-74
2024/01/01 11:08:27;;;;;;;5.32;1.25;;;6.60;99.90;;;;;;5101121;28;20035;-73
2024/01/01 11:10:55;;;;;;;5.30;2.45;;;6.70;99.90;;;;;;5100228;28;20243;-74
2024/01/01 11:13:27;;;;;;;7.00;2.13;;;6.70;99.90;;;;;;5099667;28;20047;-74
2024/01/01 11:16:31;;;;;;;5.60;1.20;;;6.60;99.90;;;;;;5099016;28;20016;-73
2024/01/01 11:19:13;;;;;;;4.93;1.95;;;6.70;99.90;;;;;;5101585;28;20347;-73
2024/01/01 11:21:38;;;;;;;4.10;0.60;;;7.10;99.90;;;;;;5100995;28;20016;-73
2024/01/01 11:24:05;;;;;;;5.07;1.75;;;7.40;99.90;;;;;;5101272;28;20038;-74
2024/01/01 11:26:35;;;;;;;5.25;1.42;;;7.60;99.90;;;;;;5100726;28;20295;-74
2024/01/01 11:29:16;;;;;;;4.10;0.52;;;7.70;99.90;;;;;;5100677;28;20012;-74
2024/01/01 11:31:42;;;;;;;4.65;0.88;;;7.70;99.90;;;;;;5098349;28;20019;-74
2024/01/01 11:34:18;;;;;;;4.30;0.50;;;7.70;99.90;;;;;;5101115;28;20028;-74
2024/01/01 11:36:58;;;;;;;5.40;0.90;;;7.60;99.90;;;;;;5099092;28;20012;-75
2024/01/01 11:39:26;;;;;;;4.35;0.70;;;7.50;99.90;;;;;;5100089;28;20024;-74
2024/01/01 11:41:55;;;;;;;2.27;0.73;;;7.50;99.90;;;;;;5100951;28;20031;-73
2024/01/01 11:44:32;;;;;;;0.70;0.60;;;7.50;99.90;;;;;;5101558;28;20310;-74
2024/01/01 11:47:01;;;;;;;0.65;0.63;;;7.50;99.90;;;;;;5102314;28;20016;-74
2024/01/01 11:49:27;;;;;;;2.60;0.45;;;7.50;99.90;;;;;;5101498;28;20054;-74
2024/01/01 11:52:19;;;;;;;9.70;0.90;;;7.60;99.90;;;;;;5101761;28;20071;-74
2024/01/01 11:55:37;;;;;;;;;;;;;;;;;;;;;
2024/01/01 11:58:07;;;;;;;1.80;0.47;;;7.70;99.90;;;;;;5070300;28;20058;-74
2024/01/01 12:00:35;;;;;;;1.33;0.25;;;7.70;99.90;;;;;;5099725;28;20358;-73
2024/01/01 12:03:14;;;;;;;5.53;0.85;;;7.70;99.90;;;;;;5099454;28;20361;-75
2024/01/01 12:05:44;;;;;;;1.75;0.60;;;7.70;99.90;;;;;;5099585;28;20023;-74
2024/01/01 12:08:23;;;;;;;;;;;;;;;;;;;;;
2024/01/01 12:10:58;;;;;;;4.57;0.77;;;7.60;99.90;;;;;;5095209;28;20091;-75
2024/01/01 12:13:24;;;;;;;3.92;0.45;;;7.60;99.90;;;;;;5098037;28;20047;-74
2024/01/01 12:15:53;;;;;;;1.45;0.73;;;7.60;99.90;;;;;;5100165;28;20019;-74
2024/01/01 12:18:19;;;;;;;4.22;0.68;;;7.60;99.90;;;;;;5109761;28;20074;-74
2024/01/01 12:20:45;;;;;;;4.50;0.50;;;7.60;99.90;;;;;;5120768;28;20215;-73
2024/01/01 12:23:17;;;;;;;5.15;0.55;;;7.60;99.90;;;;;;5120741;28;20041;-75
2024/01/01 12:29:24;;;;;;;2.28;0.55;;;8.10;99.90;;;;;;5037232;28;20060;-74
2024/01/01 12:31:50;;;;;;;4.32;0.55;;;7.70;99.90;;;;;;5081127;28;20046;-74
2024/01/01 12:34:20;;;;;;;1.30;0.65;;;7.70;99.90;;;;;;5100829;28;20036;-74
2024/01/01 12:36:47;;;;;;;0.85;0.40;;;7.70;99.90;;;;;;5100486;28;20381;-75
2024/01/01 12:39:17;;;;;;;7.40;1.58;;;7.80;99.90;;;;;;5082647;28;20074;-75
2024/01/01 12:41:43;;;;;;;1.70;1.20;;;7.80;99.90;;;;;;5100327;28;20040;-75
2024/01/01 12:44:09;;;;;;;2.42;0.52;;;7.80;99.90;;;;;;5100833;28;20016;-75
2024/01/01 12:46:40;;;;;;;1.05;0.52;;;7.80;99.90;;;;;;5094772;28;20030;-76
2024/01/01 12:49:05;;;;;;;0.85;0.85;;;7.80;99.90;;;;;;5079148;28;20231;-74
2024/01/01 12:51:31;;;;;;;2.13;0.85;;;7.80;99.90;;;;;;5103525;28;20012;-75
2024/01/01 12:53:58;;;;;;;4.90;0.70;;;7.90;99.90;;;;;;5116622;28;20103;-75
2024/01/01 12:56:25;;;;;;;6.20;1.25;;;8.00;99.90;;;;;;5124513;28;20086;-76
2024/01/01 12:58:50;;;;;;;2.25;0.85;;;8.10;99.90;;;;;;5126630;28;20023;-73
2024/01/01 13:01:16;;;;;;;1.42;0.60;;;8.20;99.90;;;;;;5107905;28;20020;-74
2024/01/01 13:03:46;;;;;;;4.15;0.93;;;8.20;99.90;;;;;;5125222;28;20023;-75
2024/01/01 13:06:16;;;;;;;5.88;1.98;;;8.20;99.90;;;;;;5124674;28;20099;-74
2024/01/01 13:08:42;;;;;;;2.67;0.43;;;8.30;99.90;;;;;;5124476;28;20217;-76
2024/01/01 13:11:10;;;;;;;3.85;0.90;;;8.10;99.90;;;;;;5122550;28;20035;-75
2024/01/01 13:13:36;;;;;;;3.05;0.70;;;8.10;99.90;;;;;;5124462;28;20031;-75
2024/01/01 13:16:06;;;;;;;9.43;2.58;;;8.30;99.90;;;;;;5105710;28;20028;-79
2024/01/01 13:18:32;;;;;;;9.35;1.13;;;8.30;99.90;;;;;;5122718;28;20039;-73
2024/01/01 13:20:58;;;;;;;2.00;0.90;;;8.60;99.90;;;;;;5123284;28;20035;-75
2024/01/01 13:23:25;;;;;;;5.05;1.70;;;8.80;99.90;;;;;;5124171;28;20276;-76
2024/01/01 13:25:51;;;;;;;5.25;1.20;;;9.80;99.90;;;;;;5112788;28;20212;-75
2024/01/01 13:28:24;;;;;;;3.47;0.88;;;9.10;99.90;;;;;;5099618;28;20027;-75
2024/01/01 13:30:51;;;;;;;1.85;0.65;;;9.20;99.90;;;;;;5098842;28;20016;-74
2024/01/01 13:33:21;;;;;;;10.18;4.38;;;9.40;99.90;;;;;;5113066;28;20253;-73
2024/01/01 13:35:48;;;;;;;3.20;0.60;;;9.90;99.90;;;;;;5112996;28;20038;-73
2024/01/01 13:38:14;;;;;;;3.35;0.75;;;10.20;99.90;;;;;;5097458;28;20036;-73
2024/01/01 13:40:40;;;;;;;2.53;0.40;;;10.20;99.90;;;;;;5124068;28;20078;-74
2024/01/01 13:43:09;;;;;;;2.55;0.40;;;9.90;99.90;;;;;;5125054;28;20015;-73
2024/01/01 13:45:38;;;;;;;4.27;0.90;;;9.80;99.90;;;;;;5122231;28;20007;-73
2024/01/01 13:48:04;;;;;;;3.50;0.43;;;9.90;99.90;;;;;;5124376;28;20015;-74
2024/01/01 13:50:30;;;;;;;3.08;1.00;;;9.80;99.90;;;;;;5105479;28;20330;-74
2024/01/01 13:53:00;;;;;;;0.45;0.40;;;9.60;99.90;;;;;;5105290;28;20039;-74
2024/01/01 13:55:29;;;;;;;0.20;0.20;;;9.60;99.90;;;;;;5122677;28;20015;-73
2024/01/01 13:58:19;;;;;;;0.63;0.30;;;8.90;99.90;;;;;;5104477;28;20072;-77
2024/01/01 14:00:48;;;;;;;1.63;0.40;;;8.40;99.90;;;;;;5121658;28;20031;-74
2024/01/01 14:03:16;;;;;;;1.75;1.17;;;8.20;99.90;;;;;;5122230;28;20007;-73
2024/01/01 14:05:42;;;;;;;5.15;0.93;;;8.40;99.90;;;;;;5123885;28;20383;-74
2024/01/01 14:08:08;;;;;;;2.95;0.60;;;8.70;99.90;;;;;;5123005;28;20028;-74
2024/01/01 14:10:34;;;;;;;3.03;0.57;;;9.20;99.90;;;;;;5114015;28;20061;-74
2024/01/01 14:12:59;;;;;;;12.73;5.07;;;9.50;99.90;;;;;;5112512;28;20034;-73
2024/01/01 14:15:27;;;;;;;0.73;0.30;;;9.60;99.90;;;;;;5111135;28;20213;-73
2024/01/01 14:17:53;;;;;;;2.50;0.38;;;10.20;99.80;;;;;;5111836;28;20039;-73
2024/01/01 14:20:20;;;;;;;3.80;0.50;;;10.30;97.70;;;;;;5108642;28;20224;-74
2024/01/01 14:22:46;;;;;;;1.17;0.43;;;10.80;97.00;;;;;;5092794;28;20061;-73
2024/01/01 14:25:12;;;;;;;1.20;0.40;;;11.30;94.80;;;;;;5091604;28;20234;-73
2024/01/01 14:27:44;;;;;;;1.20;0.52;;;11.00;93.80;;;;;;5106411;28;20203;-74
2024/01/01 14:30:11;;;;;;;1.25;0.43;;;10.70;93.70;;;;;;5111329;28;20022;-73
2024/01/01 14:32:37;;;;;;;1.42;0.30;;;10.70;94.30;;;;;;5107745;28;20358;-74
2024/01/01 14:35:04;;;;;;;1.67;0.40;;;11.10;93.60;;;;;;5121665;28;20039;-73
2024/01/01 14:37:30;;;;;;;1.10;0.30;;;11.70;93.20;;;;;;5096838;28;20027;-73
2024/01/01 14:39:56;;;;;;;1.15;0.50;;;11.00;92.40;;;;;;5110439;28;20066;-73
2024/01/01 14:42:24;;;;;;;1.45;0.55;;;11.20;92.40;;;;;;5111230;28;20047;-74
2024/01/01 14:44:50;;;;;;;0.90;0.40;;;11.50;92.00;;;;;;5113717;28;20475;-75
2024/01/01 14:47:16;;;;;;;2.13;0.40;;;11.50;91.20;;;;;;5110921;28;20039;-75
2024/01/01 14:49:54;;;;;;;0.73;0.38;;;11.70;90.20;;;;;;5112109;28;20440;-75
2024/01/01 14:52:20;;;;;;;2.42;0.95;;;11.50;90.70;;;;;;5111089;28;20023;-74
2024/01/01 14:54:46;;;;;;;5.95;0.45;;;10.90;91.30;;;;;;5097606;28;20039;-74
2024/01/01 14:57:14;;;;;;;2.75;0.40;;;10.20;92.60;;;;;;5111340;28;20024;-75
2024/01/01 14:59:41;;;;;;;5.25;2.13;;;9.60;93.90;;;;;;5112635;28;20396;-74
2024/01/01 15:02:08;;;;;;;6.10;2.22;;;9.00;95.30;;;;;;5113002;28;20104;-74
2024/01/01 15:04:34;;;;;;;17.80;6.05;;;8.60;97.00;;;;;;5092992;28;20273;-75
2024/01/01 15:07:01;;;;;;;27.63;10.35;;;8.30;99.10;;;;;;5110002;28;20520;-74
2024/01/01 15:09:27;;;;;;;19.23;8.50;;;9.40;99.90;;;;;;5090737;28;20609;-74
2024/01/01 15:11:52;;;;;;;6.05;2.05;;;8.10;99.90;;;;;;5110968;28;20087;-74
2024/01/01 15:14:18;;;;;;;7.05;2.33;;;7.80;99.90;;;;;;5109031;28;20747;-74
2024/01/01 15:16:43;;;;;;;2.90;1.67;;;7.70;99.90;;;;;;5119390;28;20219;-74
2024/01/01 15:19:10;;;;;;;2.58;1.60;;;7.60;99.90;;;;;;5117789;28;20495;-74
2024/01/01 15:21:38;;;;;;;3.45;0.88;;;7.60;99.90;;;;;;5118197;28;20652;-75
2024/01/01 15:24:04;;;;;;;6.10;1.83;;;8.50;99.90;;;;;;5120001;28;20216;-74
2024/01/01 15:26:30;;;;;;;3.67;0.77;;;7.40;99.90;;;;;;5118156;28;20061;-75